sensor_id;sensor_type;location;lat;lon;timestamp;pressure;altitude;pressure_sealevel;temperature;humidity
33496;BME280;19836;55.812;37.560;2022-10-22T00:00:25;100048.72;;;7.66;75.98
33496;BME280;19836;55.812;37.560;2022-10-22T00:02:51;100053.16;;;7.65;75.75
33496;BME280;19836;55.812;37.560;2022-10-22T00:05:17;100051.34;;;7.67;75.81
33496;BME280;19836;55.812;37.560;2022-10-22T00:07:43;100042.41;;;7.69;75.74
33496;BME280;19836;55.812;37.560;2022-10-22T00:10:09;100042.38;;;7.74;75.64
33496;BME280;19836;55.812;37.560;2022-10-22T00:12:35;100034.38;;;7.72;75.75
33496;BME280;19836;55.812;37.560;2022-10-22T00:15:02;100047.63;;;7.77;75.41
33496;BME280;19836;55.812;37.560;2022-10-22T00:17:30;100045.88;;;7.76;75.79
33496;BME280;19836;55.812;37.560;2022-10-22T00:19:56;100042.31;;;7.77;75.53
33496;BME280;19836;55.812;37.560;2022-10-22T00:22:22;100039.63;;;7.78;75.80
33496;BME280;19836;55.812;37.560;2022-10-22T00:24:48;100035.13;;;7.80;75.56
33496;BME280;19836;55.812;37.560;2022-10-22T00:27:15;100036.00;;;7.82;75.48
33496;BME280;19836;55.812;37.560;2022-10-22T00:29:42;100036.84;;;7.86;75.73
33496;BME280;19836;55.812;37.560;2022-10-22T00:32:08;100029.69;;;7.88;75.57
33496;BME280;19836;55.812;37.560;2022-10-22T00:34:34;100028.81;;;7.89;75.35
33496;BME280;19836;55.812;37.560;2022-10-22T00:37:00;100026.16;;;7.89;75.35
33496;BME280;19836;55.812;37.560;2022-10-22T00:39:27;100024.31;;;7.93;75.36
33496;BME280;19836;55.812;37.560;2022-10-22T00:41:55;100020.72;;;7.95;75.38
33496;BME280;19836;55.812;37.560;2022-10-22T00:47:27;100029.75;;;7.85;75.28
33496;BME280;19836;55.812;37.560;2022-10-22T00:49:54;100026.25;;;7.82;75.31
33496;BME280;19836;55.812;37.560;2022-10-22T00:52:21;100025.38;;;7.78;75.25
33496;BME280;19836;55.812;37.560;2022-10-22T00:54:47;100023.63;;;7.78;75.28
33496;BME280;19836;55.812;37.560;2022-10-22T00:57:15;100022.78;;;7.77;75.39
33496;BME280;19836;55.812;37.560;2022-10-22T00:59:43;100029.88;;;7.78;75.27
33496;BME280;19836;55.812;37.560;2022-10-22T01:02:10;100025.38;;;7.78;75.47
33496;BME280;19836;55.812;37.560;2022-10-22T01:04:36;100029.84;;;7.79;75.11
33496;BME280;19836;55.812;37.560;2022-10-22T01:07:02;100027.19;;;7.78;75.20
33496;BME280;19836;55.812;37.560;2022-10-22T01:10:11;100032.47;;;7.80;75.25
33496;BME280;19836;55.812;37.560;2022-10-22T01:12:52;100030.78;;;7.75;75.11
33496;BME280;19836;55.812;37.560;2022-10-22T01:15:29;100026.38;;;7.72;74.98
33496;BME280;19836;55.812;37.560;2022-10-22T01:18:09;100028.16;;;7.70;74.66
33496;BME280;19836;55.812;37.560;2022-10-22T01:23:44;100026.38;;;7.72;74.67
33496;BME280;19836;55.812;37.560;2022-10-22T01:31:42;100029.06;;;7.72;74.55
33496;BME280;19836;55.812;37.560;2022-10-22T01:34:13;100034.41;;;7.71;74.63
33496;BME280;19836;55.812;37.560;2022-10-22T01:36:41;100034.47;;;7.68;74.59
33496;BME280;19836;55.812;37.560;2022-10-22T01:39:11;100030.06;;;7.64;74.72
33496;BME280;19836;55.812;37.560;2022-10-22T01:41:43;100031.84;;;7.62;74.88
33496;BME280;19836;55.812;37.560;2022-10-22T01:44:33;100034.56;;;7.61;75.12
33496;BME280;19836;55.812;37.560;2022-10-22T01:47:41;100037.16;;;7.63;75.16
33496;BME280;19836;55.812;37.560;2022-10-22T01:56:00;100035.31;;;7.70;75.30
33496;BME280;19836;55.812;37.560;2022-10-22T02:01:25;100037.91;;;7.73;75.47
33496;BME280;19836;55.812;37.560;2022-10-22T02:04:10;100043.22;;;7.74;75.35
33496;BME280;19836;55.812;37.560;2022-10-22T02:06:39;100042.28;;;7.80;75.55
33496;BME280;19836;55.812;37.560;2022-10-22T02:09:08;100039.63;;;7.77;75.55
33496;BME280;19836;55.812;37.560;2022-10-22T02:11:35;100042.31;;;7.77;75.39
33496;BME280;19836;55.812;37.560;2022-10-22T02:14:03;100041.44;;;7.77;75.46
33496;BME280;19836;55.812;37.560;2022-10-22T02:16:36;100038.78;;;7.77;75.56
33496;BME280;19836;55.812;37.560;2022-10-22T02:19:23;100036.97;;;7.77;75.69
33496;BME280;19836;55.812;37.560;2022-10-22T02:21:53;100051.22;;;7.78;75.69
33496;BME280;19836;55.812;37.560;2022-10-22T02:24:20;100044.13;;;7.77;75.50
33496;BME280;19836;55.812;37.560;2022-10-22T02:26:58;100041.47;;;7.73;75.55
33496;BME280;19836;55.812;37.560;2022-10-22T02:29:38;100049.56;;;7.68;75.57
33496;BME280;19836;55.812;37.560;2022-10-22T02:32:08;100045.16;;;7.67;75.52
33496;BME280;19836;55.812;37.560;2022-10-22T02:34:35;100050.47;;;7.67;75.84
33496;BME280;19836;55.812;37.560;2022-10-22T02:37:03;100055.81;;;7.67;75.88
33496;BME280;19836;55.812;37.560;2022-10-22T02:39:31;100051.31;;;7.70;75.83
33496;BME280;19836;55.812;37.560;2022-10-22T02:41:59;100053.06;;;7.71;75.82
33496;BME280;19836;55.812;37.560;2022-10-22T02:44:25;100056.59;;;7.73;75.66
33496;BME280;19836;55.812;37.560;2022-10-22T02:46:51;100052.16;;;7.73;75.92
33496;BME280;19836;55.812;37.560;2022-10-22T02:49:17;100057.44;;;7.77;75.85
33496;BME280;19836;55.812;37.560;2022-10-22T02:51:43;100058.22;;;7.83;75.82
33496;BME280;19836;55.812;37.560;2022-10-22T02:54:09;100063.50;;;7.88;75.87
33496;BME280;19836;55.812;37.560;2022-10-22T02:56:35;100058.19;;;7.86;75.90
33496;BME280;19836;55.812;37.560;2022-10-22T02:59:01;100067.03;;;7.88;75.62
33496;BME280;19836;55.812;37.560;2022-10-22T03:01:26;100066.16;;;7.89;75.75
33496;BME280;19836;55.812;37.560;2022-10-22T03:03:54;100067.03;;;7.88;75.63
33496;BME280;19836;55.812;37.560;2022-10-22T03:06:20;100065.34;;;7.84;75.48
33496;BME280;19836;55.812;37.560;2022-10-22T03:08:46;100061.84;;;7.79;75.52
33496;BME280;19836;55.812;37.560;2022-10-22T03:11:12;100063.56;;;7.83;75.69
33496;BME280;19836;55.812;37.560;2022-10-22T03:13:38;100060.94;;;7.82;75.37
33496;BME280;19836;55.812;37.560;2022-10-22T03:16:04;100058.22;;;7.83;75.44
33496;BME280;19836;55.812;37.560;2022-10-22T03:18:30;100056.47;;;7.82;75.58
33496;BME280;19836;55.812;37.560;2022-10-22T03:21:13;100061.78;;;7.82;75.59
33496;BME280;19836;55.812;37.560;2022-10-22T03:23:43;100065.41;;;7.78;75.49
33496;BME280;19836;55.812;37.560;2022-10-22T03:26:11;100055.72;;;7.74;75.60
33496;BME280;19836;55.812;37.560;2022-10-22T03:28:39;100067.25;;;7.73;75.39
33496;BME280;19836;55.812;37.560;2022-10-22T03:31:05;100061.97;;;7.70;75.32
33496;BME280;19836;55.812;37.560;2022-10-22T03:33:32;100059.34;;;7.67;75.52
33496;BME280;19836;55.812;37.560;2022-10-22T03:35:59;100052.25;;;7.64;75.67
33496;BME280;19836;55.812;37.560;2022-10-22T03:38:25;100066.50;;;7.65;75.58
33496;BME280;19836;55.812;37.560;2022-10-22T03:40:52;100049.66;;;7.63;75.83
33496;BME280;19836;55.812;37.560;2022-10-22T03:43:18;100054.09;;;7.61;75.69
33496;BME280;19836;55.812;37.560;2022-10-22T03:45:44;100061.19;;;7.62;75.99
33496;BME280;19836;55.812;37.560;2022-10-22T03:48:09;100052.25;;;7.64;76.11
33496;BME280;19836;55.812;37.560;2022-10-22T03:50:35;100060.25;;;7.66;75.93
33496;BME280;19836;55.812;37.560;2022-10-22T03:53:01;100057.59;;;7.66;75.90
33496;BME280;19836;55.812;37.560;2022-10-22T03:55:28;100055.78;;;7.68;76.16
33496;BME280;19836;55.812;37.560;2022-10-22T03:57:54;100056.66;;;7.67;76.17
33496;BME280;19836;55.812;37.560;2022-10-22T04:00:20;100055.81;;;7.65;75.89
33496;BME280;19836;55.812;37.560;2022-10-22T04:02:46;100063.81;;;7.65;76.12
33496;BME280;19836;55.812;37.560;2022-10-22T04:05:11;100062.00;;;7.67;76.22
33496;BME280;19836;55.812;37.560;2022-10-22T04:07:37;100051.31;;;7.70;76.27
33496;BME280;19836;55.812;37.560;2022-10-22T04:10:06;100058.38;;;7.72;76.33
33496;BME280;19836;55.812;37.560;2022-10-22T04:12:32;100058.38;;;7.74;76.22
33496;BME280;19836;55.812;37.560;2022-10-22T04:15:00;100057.47;;;7.73;76.29
33496;BME280;19836;55.812;37.560;2022-10-22T04:17:25;100057.47;;;7.73;76.18
33496;BME280;19836;55.812;37.560;2022-10-22T04:19:57;100061.88;;;7.76;76.43
33496;BME280;19836;55.812;37.560;2022-10-22T04:22:23;100057.44;;;7.77;76.33
33496;BME280;19836;55.812;37.560;2022-10-22T04:24:51;100065.41;;;7.78;76.41
33496;BME280;19836;55.812;37.560;2022-10-22T04:27:17;100060.06;;;7.78;76.53
33496;BME280;19836;55.812;37.560;2022-10-22T04:29:44;100060.06;;;7.78;76.35
33496;BME280;19836;55.812;37.560;2022-10-22T04:32:10;100065.47;;;7.75;76.33
33496;BME280;19836;55.812;37.560;2022-10-22T04:34:36;100069.91;;;7.74;76.49
33496;BME280;19836;55.812;37.560;2022-10-22T04:37:04;100070.78;;;7.75;76.37
33496;BME280;19836;55.812;37.560;2022-10-22T04:39:30;100073.47;;;7.75;76.42
33496;BME280;19836;55.812;37.560;2022-10-22T04:41:55;100078.78;;;7.77;76.45
33496;BME280;19836;55.812;37.560;2022-10-22T04:44:21;100072.56;;;7.76;76.62
33496;BME280;19836;55.812;37.560;2022-10-22T04:46:47;100072.59;;;7.73;76.41
33496;BME280;19836;55.812;37.560;2022-10-22T04:49:15;100070.91;;;7.68;76.82
33496;BME280;19836;55.812;37.560;2022-10-22T04:51:41;100068.34;;;7.60;76.71
33496;BME280;19836;55.812;37.560;2022-10-22T04:54:07;100084.34;;;7.60;76.76
33496;BME280;19836;55.812;37.560;2022-10-22T04:56:33;100079.84;;;7.62;77.41
33496;BME280;19836;55.812;37.560;2022-10-22T04:59:01;100086.00;;;7.68;77.20
33496;BME280;19836;55.812;37.560;2022-10-22T05:01:30;100074.41;;;7.71;77.13
33496;BME280;19836;55.812;37.560;2022-10-22T05:03:59;100076.16;;;7.73;77.12
33496;BME280;19836;55.812;37.560;2022-10-22T05:06:26;100085.97;;;7.72;77.05
33496;BME280;19836;55.812;37.560;2022-10-22T05:09:03;100073.56;;;7.68;77.30
33496;BME280;19836;55.812;37.560;2022-10-22T05:11:33;100078.91;;;7.66;77.33
33496;BME280;19836;55.812;37.560;2022-10-22T05:14:01;100072.72;;;7.64;77.58
33496;BME280;19836;55.812;37.560;2022-10-22T05:16:29;100069.16;;;7.65;77.64
33496;BME280;19836;55.812;37.560;2022-10-22T05:18:57;100078.00;;;7.67;77.65
33496;BME280;19836;55.812;37.560;2022-10-22T05:21:25;100074.22;;;7.84;78.16
33496;BME280;19836;55.812;37.560;2022-10-22T05:23:53;100078.50;;;7.96;78.26
33496;BME280;19836;55.812;37.560;2022-10-22T05:26:20;100082.88;;;8.00;78.12
33496;BME280;19836;55.812;37.560;2022-10-22T05:28:48;100079.28;;;8.02;77.91
33496;BME280;19836;55.812;37.560;2022-10-22T05:31:15;100082.81;;;8.03;77.77
33496;BME280;19836;55.812;37.560;2022-10-22T05:33:41;100084.63;;;8.04;77.48
33496;BME280;19836;55.812;37.560;2022-10-22T05:36:12;100094.38;;;8.05;77.45
33496;BME280;19836;55.812;37.560;2022-10-22T05:38:38;100091.59;;;8.14;77.30
33496;BME280;19836;55.812;37.560;2022-10-22T05:41:13;100096.78;;;8.23;77.09
33496;BME280;19836;55.812;37.560;2022-10-22T05:43:39;100096.75;;;8.28;77.17
33496;BME280;19836;55.812;37.560;2022-10-22T05:46:13;100092.13;;;8.37;77.22
33496;BME280;19836;55.812;37.560;2022-10-22T05:48:41;100089.47;;;8.37;77.08
33496;BME280;19836;55.812;37.560;2022-10-22T05:51:09;100094.88;;;8.34;77.06
33496;BME280;19836;55.812;37.560;2022-10-22T05:53:38;100097.47;;;8.37;77.05
33496;BME280;19836;55.812;37.560;2022-10-22T05:56:07;100096.47;;;8.44;76.95
33496;BME280;19836;55.812;37.560;2022-10-22T05:58:36;100091.91;;;8.51;76.90
33496;BME280;19836;55.812;37.560;2022-10-22T06:01:07;100093.50;;;8.61;76.99
33496;BME280;19836;55.812;37.560;2022-10-22T06:03:34;100093.44;;;8.65;76.75
33496;BME280;19836;55.812;37.560;2022-10-22T06:06:04;100088.94;;;8.67;76.38
33496;BME280;19836;55.812;37.560;2022-10-22T06:08:32;100088.81;;;8.76;76.47
33496;BME280;19836;55.812;37.560;2022-10-22T06:10:58;100095.72;;;8.89;75.99
33496;BME280;19836;55.812;37.560;2022-10-22T06:13:24;100094.69;;;8.96;75.68
33496;BME280;19836;55.812;37.560;2022-10-22T06:15:50;100087.63;;;8.92;75.26
33496;BME280;19836;55.812;37.560;2022-10-22T06:18:18;100094.78;;;8.92;75.33
33496;BME280;19836;55.812;37.560;2022-10-22T06:20:44;100093.09;;;8.85;75.22
33496;BME280;19836;55.812;37.560;2022-10-22T06:23:12;100095.88;;;8.80;75.18
33496;BME280;19836;55.812;37.560;2022-10-22T06:25:39;100091.47;;;8.76;75.09
33496;BME280;19836;55.812;37.560;2022-10-22T06:28:05;100100.28;;;8.83;75.41
33496;BME280;19836;55.812;37.560;2022-10-22T06:30:31;100096.66;;;8.87;75.28
33496;BME280;19836;55.812;37.560;2022-10-22T06:32:57;100105.50;;;8.89;75.41
33496;BME280;19836;55.812;37.560;2022-10-22T06:35:23;100102.78;;;8.92;74.98
33496;BME280;19836;55.812;37.560;2022-10-22T06:37:49;100107.22;;;8.93;75.30
33496;BME280;19836;55.812;37.560;2022-10-22T06:40:15;100099.13;;;8.96;74.83
33496;BME280;19836;55.812;37.560;2022-10-22T06:42:43;100109.75;;;9.00;74.94
33496;BME280;19836;55.812;37.560;2022-10-22T06:45:09;100109.63;;;9.06;74.57
33496;BME280;19836;55.812;37.560;2022-10-22T06:47:35;100109.47;;;9.15;74.77
33496;BME280;19836;55.812;37.560;2022-10-22T06:50:01;100113.81;;;9.21;74.46
33496;BME280;19836;55.812;37.560;2022-10-22T06:52:28;100116.41;;;9.25;74.31
33496;BME280;19836;55.812;37.560;2022-10-22T06:54:54;100119.91;;;9.29;74.28
33496;BME280;19836;55.812;37.560;2022-10-22T06:57:20;100120.75;;;9.31;73.83
33496;BME280;19836;55.812;37.560;2022-10-22T06:59:46;100119.84;;;9.32;73.67
33496;BME280;19836;55.812;37.560;2022-10-22T07:02:12;100118.13;;;9.29;73.59
33496;BME280;19836;55.812;37.560;2022-10-22T07:04:39;100118.16;;;9.26;73.12
33496;BME280;19836;55.812;37.560;2022-10-22T07:07:06;100110.09;;;9.29;73.45
33496;BME280;19836;55.812;37.560;2022-10-22T07:09:31;100121.69;;;9.28;73.51
33496;BME280;19836;55.812;37.560;2022-10-22T07:11:57;100128.75;;;9.32;73.14
33496;BME280;19836;55.812;37.560;2022-10-22T07:14:23;100123.47;;;9.29;73.16
33496;BME280;19836;55.812;37.560;2022-10-22T07:16:49;100128.84;;;9.28;73.05
33496;BME280;19836;55.812;37.560;2022-10-22T07:19:17;100130.56;;;9.30;73.22
33496;BME280;19836;55.812;37.560;2022-10-22T07:21:45;100122.56;;;9.29;73.58
33496;BME280;19836;55.812;37.560;2022-10-22T07:24:13;100128.91;;;9.23;73.36
33496;BME280;19836;55.812;37.560;2022-10-22T07:26:45;100134.16;;;9.29;73.93
33496;BME280;19836;55.812;37.560;2022-10-22T07:29:14;100131.28;;;9.38;73.71
33496;BME280;19836;55.812;37.560;2022-10-22T07:31:41;100129.38;;;9.46;74.14
33496;BME280;19836;55.812;37.560;2022-10-22T07:38:06;100122.66;;;9.68;73.35
33496;BME280;19836;55.812;37.560;2022-10-22T07:40:47;100126.25;;;9.67;73.16
33496;BME280;19836;55.812;37.560;2022-10-22T07:43:17;100125.50;;;9.61;72.58
33496;BME280;19836;55.812;37.560;2022-10-22T07:45:48;100123.06;;;9.50;72.69
33496;BME280;19836;55.812;37.560;2022-10-22T07:48:22;100128.63;;;9.38;72.24
33496;BME280;19836;55.812;37.560;2022-10-22T07:50:55;100126.94;;;9.34;71.99
33496;BME280;19836;55.812;37.560;2022-10-22T07:53:24;100124.16;;;9.39;72.61
33496;BME280;19836;55.812;37.560;2022-10-22T07:55:50;100129.50;;;9.40;71.99
33496;BME280;19836;55.812;37.560;2022-10-22T07:58:18;100132.03;;;9.46;72.10
33496;BME280;19836;55.812;37.560;2022-10-22T08:00:44;100124.81;;;9.51;72.01
33496;BME280;19836;55.812;37.560;2022-10-22T08:03:11;100122.00;;;9.57;71.86
33496;BME280;19836;55.812;37.560;2022-10-22T08:05:37;100125.53;;;9.59;71.52
33496;BME280;19836;55.812;37.560;2022-10-22T08:08:07;100125.63;;;9.55;71.43
33496;BME280;19836;55.812;37.560;2022-10-22T08:10:34;100121.28;;;9.49;71.54
33496;BME280;19836;55.812;37.560;2022-10-22T08:13:25;100124.03;;;9.45;71.52
33496;BME280;19836;55.812;37.560;2022-10-22T08:15:52;100121.53;;;9.36;71.47
33496;BME280;19836;55.812;37.560;2022-10-22T08:21:17;100126.81;;;9.40;71.15
33496;BME280;19836;55.812;37.560;2022-10-22T08:23:43;100132.22;;;9.37;70.91
33496;BME280;19836;55.812;37.560;2022-10-22T08:26:09;100125.22;;;9.30;70.94
33496;BME280;19836;55.812;37.560;2022-10-22T08:28:35;100133.38;;;9.24;71.20
33496;BME280;19836;55.812;37.560;2022-10-22T08:31:04;100127.13;;;9.24;70.77
33496;BME280;19836;55.812;37.560;2022-10-22T08:33:31;100126.09;;;9.31;71.25
33496;BME280;19836;55.812;37.560;2022-10-22T08:39:15;100130.69;;;9.24;70.31
33496;BME280;19836;55.812;37.560;2022-10-22T08:45:05;100131.91;;;9.07;70.43
33496;BME280;19836;55.812;37.560;2022-10-22T08:48:55;100130.19;;;9.03;70.75
33496;BME280;19836;55.812;37.560;2022-10-22T08:50:55;100132.63;;;9.16;70.90
33496;BME280;19836;55.812;37.560;2022-10-22T08:53:30;100134.09;;;9.31;70.90
33496;BME280;19836;55.812;37.560;2022-10-22T08:59:50;100129.22;;;9.52;70.59
33496;BME280;19836;55.812;37.560;2022-10-22T09:08:00;100126.13;;;9.73;69.93
33496;BME280;19836;55.812;37.560;2022-10-22T09:10:30;100125.00;;;9.83;69.97
33496;BME280;19836;55.812;37.560;2022-10-22T09:12:57;100122.91;;;9.99;69.45
33496;BME280;19836;55.812;37.560;2022-10-22T09:15:23;100116.59;;;10.01;69.04
33496;BME280;19836;55.812;37.560;2022-10-22T09:20:58;100117.25;;;10.14;68.46
33496;BME280;19836;55.812;37.560;2022-10-22T09:25:55;100120.09;;;10.06;68.09
33496;BME280;19836;55.812;37.560;2022-10-22T09:28:22;100122.00;;;9.98;67.84
33496;BME280;19836;55.812;37.560;2022-10-22T09:30:48;100125.88;;;9.85;67.48
33496;BME280;19836;55.812;37.560;2022-10-22T09:33:24;100117.00;;;9.83;67.49
33496;BME280;19836;55.812;37.560;2022-10-22T09:36:01;100123.13;;;9.88;67.73
33496;BME280;19836;55.812;37.560;2022-10-22T09:38:30;100115.19;;;9.85;67.71
33496;BME280;19836;55.812;37.560;2022-10-22T09:41:00;100117.13;;;9.77;67.70
33496;BME280;19836;55.812;37.560;2022-10-22T09:43:28;100115.53;;;9.69;67.86
33496;BME280;19836;55.812;37.560;2022-10-22T09:46:00;100112.97;;;9.64;68.06
33496;BME280;19836;55.812;37.560;2022-10-22T09:48:36;100119.31;;;9.57;67.93
33496;BME280;19836;55.812;37.560;2022-10-22T09:51:20;100115.94;;;9.49;68.08
33496;BME280;19836;55.812;37.560;2022-10-22T09:53:55;100121.38;;;9.43;68.16
33496;BME280;19836;55.812;37.560;2022-10-22T09:59:29;100111.31;;;9.57;68.39
33496;BME280;19836;55.812;37.560;2022-10-22T10:01:58;100108.41;;;9.68;68.61
33496;BME280;19836;55.812;37.560;2022-10-22T10:04:24;100115.38;;;9.76;68.26
33496;BME280;19836;55.812;37.560;2022-10-22T10:06:53;100104.63;;;9.79;68.01
33496;BME280;19836;55.812;37.560;2022-10-22T10:09:35;100104.38;;;9.88;68.18
33496;BME280;19836;55.812;37.560;2022-10-22T10:17:46;100101.97;;;9.78;67.89
33496;BME280;19836;55.812;37.560;2022-10-22T10:26:00;100098.66;;;9.65;68.50
33496;BME280;19836;55.812;37.560;2022-10-22T10:42:34;100097.44;;;9.80;68.53
33496;BME280;19836;55.812;37.560;2022-10-22T10:45:19;100095.66;;;9.80;68.36
33496;BME280;19836;55.812;37.560;2022-10-22T10:54:20;100089.50;;;9.77;67.88
33496;BME280;19836;55.812;37.560;2022-10-22T10:56:59;100098.31;;;9.82;67.36
33496;BME280;19836;55.812;37.560;2022-10-22T11:12:35;100082.50;;;9.70;66.93
33496;BME280;19836;55.812;37.560;2022-10-22T11:15:27;100072.56;;;9.75;67.04
33496;BME280;19836;55.812;37.560;2022-10-22T11:18:11;100073.34;;;9.81;66.86
33496;BME280;19836;55.812;37.560;2022-10-22T11:23:20;100068.72;;;9.88;66.89
33496;BME280;19836;55.812;37.560;2022-10-22T11:25:49;100065.97;;;9.91;66.78
33496;BME280;19836;55.812;37.560;2022-10-22T11:28:23;100059.81;;;9.87;66.25
33496;BME280;19836;55.812;37.560;2022-10-22T11:31:13;100063.25;;;9.94;66.57
33496;BME280;19836;55.812;37.560;2022-10-22T11:34:04;100066.72;;;9.97;66.56
33496;BME280;19836;55.812;37.560;2022-10-22T12:10:21;100038.41;;;9.87;66.11
33496;BME280;19836;55.812;37.560;2022-10-22T12:13:00;100031.28;;;9.86;66.02
33496;BME280;19836;55.812;37.560;2022-10-22T12:15:27;100032.03;;;9.93;66.34
33496;BME280;19836;55.812;37.560;2022-10-22T12:18:02;100040.75;;;10.01;66.47
33496;BME280;19836;55.812;37.560;2022-10-22T12:20:30;100029.19;;;10.00;66.46
33496;BME280;19836;55.812;37.560;2022-10-22T12:22:57;100023.75;;;10.03;66.72
33496;BME280;19836;55.812;37.560;2022-10-22T12:25:29;100026.41;;;10.06;66.53
33496;BME280;19836;55.812;37.560;2022-10-22T12:27:57;100034.44;;;10.06;66.25
33496;BME280;19836;55.812;37.560;2022-10-22T12:30:30;100025.56;;;10.04;66.47
33496;BME280;19836;55.812;37.560;2022-10-22T12:32:58;100030.91;;;10.04;66.71
33496;BME280;19836;55.812;37.560;2022-10-22T12:35:33;100016.63;;;10.02;66.43
33496;BME280;19836;55.812;37.560;2022-10-22T12:40:55;100021.06;;;10.05;66.47
33496;BME280;19836;55.812;37.560;2022-10-22T12:43:30;100018.41;;;10.05;66.55
33496;BME280;19836;55.812;37.560;2022-10-22T12:45:58;100018.38;;;10.03;66.42
33496;BME280;19836;55.812;37.560;2022-10-22T12:48:30;100016.50;;;10.08;66.33
33496;BME280;19836;55.812;37.560;2022-10-22T12:51:00;100014.69;;;10.10;66.33
33496;BME280;19836;55.812;37.560;2022-10-22T12:53:30;100014.88;;;10.01;66.38
33496;BME280;19836;55.812;37.560;2022-10-22T12:56:03;100008.78;;;9.95;66.90
33496;BME280;19836;55.812;37.560;2022-10-22T12:58:40;100013.13;;;10.00;66.56
33496;BME280;19836;55.812;37.560;2022-10-22T13:01:06;100013.28;;;9.94;66.33
33496;BME280;19836;55.812;37.560;2022-10-22T13:03:45;100020.66;;;9.83;66.37
33496;BME280;19836;55.812;37.560;2022-10-22T13:06:13;100011.38;;;9.60;65.72
33496;BME280;19836;55.812;37.560;2022-10-22T13:09:13;100011.94;;;9.34;66.21
33496;BME280;19836;55.812;37.560;2022-10-22T13:11:56;100013.75;;;8.88;66.79
33496;BME280;19836;55.812;37.560;2022-10-22T13:14:34;100022.28;;;8.63;67.90
33496;BME280;19836;55.812;37.560;2022-10-22T13:58:18;99986.25;;;8.83;71.17
33496;BME280;19836;55.812;37.560;2022-10-22T14:09:38;99976.34;;;8.88;70.91
33496;BME280;19836;55.812;37.560;2022-10-22T14:12:26;99984.34;;;8.90;70.84
33496;BME280;19836;55.812;37.560;2022-10-22T14:14:57;99978.94;;;8.94;70.58
33496;BME280;19836;55.812;37.560;2022-10-22T14:17:23;99973.66;;;8.90;70.41
33496;BME280;19836;55.812;37.560;2022-10-22T14:19:49;99980.03;;;8.83;70.46
33496;BME280;19836;55.812;37.560;2022-10-22T14:22:17;99989.84;;;8.81;70.36
33496;BME280;19836;55.812;37.560;2022-10-22T14:24:44;99980.09;;;8.78;70.12
33496;BME280;19836;55.812;37.560;2022-10-22T14:27:14;99982.84;;;8.77;70.15
33496;BME280;19836;55.812;37.560;2022-10-22T14:29:41;99985.53;;;8.75;70.65
33496;BME280;19836;55.812;37.560;2022-10-22T14:32:16;99987.34;;;8.73;70.89
33496;BME280;19836;55.812;37.560;2022-10-22T14:34:47;99988.13;;;8.78;71.01
33496;BME280;19836;55.812;37.560;2022-10-22T14:37:18;99980.97;;;8.80;71.60
33496;BME280;19836;55.812;37.560;2022-10-22T14:39:48;99980.03;;;8.84;71.34
33496;BME280;19836;55.812;37.560;2022-10-22T14:42:19;99982.69;;;8.84;71.94
33496;BME280;19836;55.812;37.560;2022-10-22T14:44:45;99981.78;;;8.85;72.05
33496;BME280;19836;55.812;37.560;2022-10-22T14:47:11;99987.13;;;8.85;71.78
33496;BME280;19836;55.812;37.560;2022-10-22T14:49:38;99982.69;;;8.84;71.26
33496;BME280;19836;55.812;37.560;2022-10-22T14:52:04;99988.91;;;8.83;71.08
33496;BME280;19836;55.812;37.560;2022-10-22T14:54:30;99977.44;;;8.78;70.52
33496;BME280;19836;55.812;37.560;2022-10-22T14:56:57;99982.63;;;8.86;70.73
33496;BME280;19836;55.812;37.560;2022-10-22T14:59:26;99984.28;;;8.93;70.34
33496;BME280;19836;55.812;37.560;2022-10-22T15:01:52;99990.50;;;8.93;70.49
33496;BME280;19836;55.812;37.560;2022-10-22T15:04:18;99992.22;;;8.97;70.59
33496;BME280;19836;55.812;37.560;2022-10-22T15:06:45;99990.31;;;9.02;70.63
33496;BME280;19836;55.812;37.560;2022-10-22T15:09:11;99985.84;;;9.04;70.27
33496;BME280;19836;55.812;37.560;2022-10-22T15:11:38;99989.34;;;9.06;70.13
33496;BME280;19836;55.812;37.560;2022-10-22T15:14:04;99988.44;;;9.07;70.29
33496;BME280;19836;55.812;37.560;2022-10-22T15:16:32;99986.56;;;9.11;70.18
33496;BME280;19836;55.812;37.560;2022-10-22T15:18:58;99990.16;;;9.11;70.12
33496;BME280;19836;55.812;37.560;2022-10-22T15:21:25;99981.34;;;9.06;70.56
33496;BME280;19836;55.812;37.560;2022-10-22T15:23:55;99985.75;;;9.09;70.31
33496;BME280;19836;55.812;37.560;2022-10-22T15:26:21;99981.22;;;9.11;70.15
33496;BME280;19836;55.812;37.560;2022-10-22T15:29:11;99984.69;;;9.16;70.11
33496;BME280;19836;55.812;37.560;2022-10-22T15:35:08;99986.56;;;9.12;70.31
33496;BME280;19836;55.812;37.560;2022-10-22T15:37:39;99990.16;;;9.11;70.57
33496;BME280;19836;55.812;37.560;2022-10-22T15:40:06;99991.88;;;9.14;70.26
33496;BME280;19836;55.812;37.560;2022-10-22T15:42:33;99988.22;;;9.19;70.47
33496;BME280;19836;55.812;37.560;2022-10-22T15:45:01;99990.09;;;9.14;70.10
33496;BME280;19836;55.812;37.560;2022-10-22T15:47:29;99984.94;;;9.05;70.16
33496;BME280;19836;55.812;37.560;2022-10-22T15:49:55;99984.94;;;9.05;70.16
33496;BME280;19836;55.812;37.560;2022-10-22T15:52:22;99983.03;;;9.12;70.69
33496;BME280;19836;55.812;37.560;2022-10-22T15:54:48;99993.63;;;9.15;70.49
33496;BME280;19836;55.812;37.560;2022-10-22T15:57:14;99993.66;;;9.13;70.88
33496;BME280;19836;55.812;37.560;2022-10-22T15:59:40;99991.84;;;9.15;70.61
33496;BME280;19836;55.812;37.560;2022-10-22T16:02:05;99991.84;;;9.15;71.30
33496;BME280;19836;55.812;37.560;2022-10-22T16:04:32;99991.84;;;9.15;71.31
33496;BME280;19836;55.812;37.560;2022-10-22T16:06:58;100003.47;;;9.13;70.97
33496;BME280;19836;55.812;37.560;2022-10-22T16:09:26;100000.88;;;9.08;70.84
33496;BME280;19836;55.812;37.560;2022-10-22T16:11:53;99990.28;;;9.05;71.15